Time;durP1;ratioP1;P1;durP2;ratioP2;P2;SDS_P1;SDS_P2;PMS_P1;PMS_P2;Temp;Humidity;BMP_temperature;BMP_pressure;BME280_temperature;BME280_humidity;BME280_pressure;Samples;Min_cycle;Max_cycle;Signal;HPM_P1;HPM_P2
2021/07/19 07:42:29;;;;;;;6.60;5.23;;;20.00;91.30;;;;;;4170965;23;20590;-78
2021/07/19 07:44:51;;;;;;;6.47;4.50;;;19.90;91.70;;;;;;4129208;28;20502;-79
2021/07/19 07:50:01;;;;;;;6.63;4.80;;;19.90;91.30;;;;;;4134718;28;20467;-82
2021/07/19 07:56:54;;;;;;;5.43;4.47;;;19.90;90.40;;;;;;4136523;28;20541;-80
2021/07/19 07:59:18;;;;;;;7.03;4.40;;;19.80;90.40;;;;;;4131926;28;20509;-81
2021/07/19 08:01:24;;;;;;;6.30;5.43;;;19.90;90.30;;;;;;4137212;28;20474;-81
2021/07/19 08:03:41;;;;;;;10.00;4.63;;;19.90;90.30;;;;;;4133986;28;20490;-82
2021/07/19 08:05:49;;;;;;;6.90;5.13;;;19.90;90.30;;;;;;4131819;28;20462;-81
2021/07/19 08:07:52;;;;;;;6.23;4.80;;;20.00;91.10;;;;;;4133742;28;20470;-81
2021/07/19 08:09:56;;;;;;;8.63;4.70;;;20.10;91.10;;;;;;4129185;28;20843;-80
2021/07/19 08:11:59;;;;;;;6.47;4.80;;;20.10;91.30;;;;;;4133797;28;20490;-81
2021/07/19 08:14:04;;;;;;;7.03;4.97;;;20.20;91.90;;;;;;4133483;28;20871;-81
2021/07/19 08:16:10;;;;;;;6.30;5.17;;;20.20;90.70;;;;;;4133986;28;20545;-81
2021/07/19 08:18:14;;;;;;;7.80;5.43;;;20.30;93.40;;;;;;4133833;28;20474;-81
2021/07/19 08:20:17;;;;;;;5.43;4.90;;;20.40;91.70;;;;;;4131122;28;20472;-83
2021/07/19 08:22:23;;;;;;;5.13;4.63;;;20.50;92.20;;;;;;4133112;28;20565;-81
2021/07/19 08:24:26;;;;;;;6.27;4.77;;;20.50;90.90;;;;;;4133048;28;20466;-82
2021/07/19 08:26:29;;;;;;;6.60;5.40;;;20.40;91.30;;;;;;4133388;28;20489;-80
2021/07/19 08:28:32;;;;;;;10.47;4.70;;;20.60;91.80;;;;;;4133233;28;20531;-81
2021/07/19 08:30:35;;;;;;;6.27;4.77;;;20.60;91.20;;;;;;4128558;28;20494;-81
2021/07/19 08:32:40;;;;;;;7.20;5.60;;;20.80;90.00;;;;;;4128862;28;20490;-81
2021/07/19 08:34:45;;;;;;;8.67;5.23;;;20.80;90.10;;;;;;4132423;28;22127;-81
2021/07/19 08:36:49;;;;;;;9.03;4.80;;;20.70;89.80;;;;;;4129224;28;20463;-81
2021/07/19 08:38:52;;;;;;;5.27;4.77;;;20.60;89.90;;;;;;4133661;28;20467;-81
2021/07/19 08:40:56;;;;;;;4.80;4.10;;;20.60;90.20;;;;;;4135535;28;20900;-81
2021/07/19 08:43:13;;;;;;;5.63;4.40;;;20.70;90.70;;;;;;4136399;28;20560;-84
2021/07/19 08:45:16;;;;;;;9.23;4.87;;;20.80;90.00;;;;;;4136488;28;20493;-84
2021/07/19 08:47:20;;;;;;;6.70;4.27;;;20.80;88.90;;;;;;4135037;28;20470;-81
2021/07/19 08:49:24;;;;;;;5.23;4.10;;;20.70;89.20;;;;;;4134126;28;20494;-81
2021/07/19 08:51:28;;;;;;;7.47;4.23;;;20.80;88.90;;;;;;4135742;28;20494;-80
2021/07/19 08:53:34;;;;;;;5.47;3.70;;;20.80;88.40;;;;;;4131857;28;20505;-85
2021/07/19 08:55:37;;;;;;;4.00;3.60;;;20.90;89.90;;;;;;4135692;28;20834;-81
2021/07/19 08:57:41;;;;;;;6.40;3.77;;;20.90;89.20;;;;;;4136444;28;20463;-82
2021/07/19 08:59:46;;;;;;;5.43;4.00;;;20.90;88.70;;;;;;4133764;28;20459;-81
2021/07/19 09:01:49;;;;;;;5.70;4.57;;;21.00;89.20;;;;;;4135966;28;20479;-81
2021/07/19 09:03:52;;;;;;;4.90;4.13;;;21.00;88.90;;;;;;4132586;28;20462;-81
2021/07/19 09:05:57;;;;;;;5.13;3.87;;;20.90;88.30;;;;;;4133260;28;20978;-81
2021/07/19 09:08:00;;;;;;;5.20;4.00;;;20.90;88.20;;;;;;4135567;28;20483;-81
2021/07/19 09:10:03;;;;;;;4.87;3.73;;;20.90;88.70;;;;;;4135128;28;20589;-81
2021/07/19 09:12:07;;;;;;;5.43;4.13;;;21.00;88.40;;;;;;4133346;28;20589;-81
2021/07/19 09:14:14;;;;;;;7.13;4.30;;;21.00;88.40;;;;;;4129372;28;20553;-81
2021/07/19 09:16:17;;;;;;;6.13;4.13;;;20.90;88.70;;;;;;4132802;28;20992;-81
2021/07/19 09:18:24;;;;;;;5.03;4.53;;;21.00;89.00;;;;;;4133507;28;20471;-81
2021/07/19 09:20:30;;;;;;;4.43;4.03;;;21.20;89.00;;;;;;4135037;28;20455;-81
2021/07/19 09:22:36;;;;;;;5.83;4.03;;;21.20;88.10;;;;;;4134426;28;20479;-81
2021/07/19 09:24:39;;;;;;;4.50;3.90;;;21.30;87.90;;;;;;4133946;28;20550;-81
2021/07/19 09:26:44;;;;;;;4.60;3.90;;;21.20;87.70;;;;;;4134085;28;20966;-81
2021/07/19 09:28:57;;;;;;;6.30;4.30;;;21.20;89.50;;;;;;4134699;28;20507;-82
2021/07/19 09:31:06;;;;;;;4.60;3.70;;;21.20;88.80;;;;;;4135496;28;20498;-82
2021/07/19 09:33:11;;;;;;;7.97;4.23;;;21.00;87.60;;;;;;4133589;28;20478;-82
2021/07/19 09:35:15;;;;;;;4.00;3.50;;;20.80;88.70;;;;;;4133957;28;20461;-81
2021/07/19 09:37:18;;;;;;;4.50;3.63;;;20.80;88.00;;;;;;4133604;28;20727;-83
2021/07/19 09:39:22;;;;;;;4.70;3.43;;;20.80;88.50;;;;;;4132227;28;20490;-82
2021/07/19 09:41:25;;;;;;;4.93;3.60;;;20.90;88.70;;;;;;4133906;28;20825;-84
2021/07/19 09:43:31;;;;;;;4.17;3.70;;;20.90;87.70;;;;;;4133314;28;20498;-82
2021/07/19 09:45:34;;;;;;;8.37;3.93;;;20.90;87.80;;;;;;4133540;28;20861;-82
2021/07/19 09:47:40;;;;;;;9.90;4.03;;;20.90;89.00;;;;;;4132958;28;20902;-81
2021/07/19 09:49:43;;;;;;;6.60;3.83;;;21.00;90.10;;;;;;4133800;28;20477;-81
2021/07/19 09:51:46;;;;;;;4.00;3.60;;;21.10;89.60;;;;;;4132165;28;20490;-82
2021/07/19 09:54:10;;;;;;;5.80;3.53;;;21.00;88.50;;;;;;4134251;28;20962;-83
2021/07/19 09:56:16;;;;;;;5.13;3.70;;;20.90;88.50;;;;;;4134151;28;20591;-82
2021/07/19 09:58:22;;;;;;;4.43;3.73;;;20.80;89.00;;;;;;4132231;28;20475;-81
2021/07/19 10:00:27;;;;;;;3.90;3.33;;;20.80;90.10;;;;;;4132275;28;20839;-82
2021/07/19 10:02:34;;;;;;;4.20;3.80;;;20.80;89.90;;;;;;4131532;28;20479;-81
2021/07/19 10:04:47;;;;;;;6.73;4.10;;;20.90;89.70;;;;;;4131773;28;20557;-81
2021/07/19 10:06:52;;;;;;;10.17;4.90;;;20.90;89.70;;;;;;4132791;28;21006;-82
2021/07/19 10:08:58;;;;;;;9.23;4.30;;;20.90;90.50;;;;;;4132392;28;20550;-82
2021/07/19 10:11:02;;;;;;;4.27;3.80;;;21.00;89.90;;;;;;4133809;28;21054;-82
2021/07/19 10:13:08;;;;;;;7.97;4.67;;;21.00;89.30;;;;;;4132900;28;20526;-81
2021/07/19 10:15:12;;;;;;;4.73;3.93;;;21.00;90.20;;;;;;4133306;28;20545;-81
2021/07/19 10:17:26;;;;;;;6.10;4.43;;;20.90;90.20;;;;;;4131307;28;20473;-83
2021/07/19 10:19:29;;;;;;;3.93;3.53;;;20.80;89.90;;;;;;4131390;28;20475;-82
2021/07/19 10:21:35;;;;;;;9.53;4.30;;;20.60;90.20;;;;;;4133755;28;21025;-81
2021/07/19 10:23:40;;;;;;;4.97;4.00;;;20.40;91.70;;;;;;4133784;28;20471;-81
2021/07/19 10:25:43;;;;;;;4.40;4.00;;;20.60;90.10;;;;;;4134049;28;20469;-80
2021/07/19 10:27:47;;;;;;;6.30;4.00;;;20.50;90.10;;;;;;4137483;28;20510;-81
2021/07/19 10:29:52;;;;;;;6.10;4.27;;;20.60;91.20;;;;;;4135442;28;20826;-81
2021/07/19 10:31:55;;;;;;;9.20;4.47;;;20.90;90.40;;;;;;4134952;28;20495;-81
2021/07/19 10:34:01;;;;;;;5.50;4.30;;;21.10;89.60;;;;;;4133067;28;20549;-82
2021/07/19 10:36:07;;;;;;;5.07;3.77;;;21.00;90.00;;;;;;4132873;28;20838;-81
2021/07/19 10:38:13;;;;;;;5.60;4.20;;;21.00;90.20;;;;;;4130808;28;20498;-81
2021/07/19 10:40:21;;;;;;;5.17;4.30;;;21.30;89.90;;;;;;4132909;28;20477;-83
2021/07/19 10:42:34;;;;;;;6.13;4.37;;;21.30;89.40;;;;;;4133834;28;20495;-81
2021/07/19 10:44:39;;;;;;;6.83;3.80;;;21.30;89.00;;;;;;4130678;28;20514;-83
2021/07/19 10:46:46;;;;;;;6.00;3.93;;;21.20;89.30;;;;;;4132773;28;20948;-81
2021/07/19 10:48:49;;;;;;;4.70;4.20;;;21.20;89.60;;;;;;4132974;28;20474;-81
2021/07/19 10:50:53;;;;;;;7.23;4.73;;;21.20;89.20;;;;;;4133122;28;20482;-81
2021/07/19 10:52:59;;;;;;;5.37;4.20;;;21.20;89.50;;;;;;4133415;28;20494;-81
2021/07/19 10:55:02;;;;;;;7.67;3.87;;;21.20;90.00;;;;;;4133770;28;20469;-82
2021/07/19 10:57:10;;;;;;;5.90;3.80;;;21.30;89.70;;;;;;4132661;28;20955;-81
2021/07/19 10:59:30;;;;;;;7.83;4.07;;;21.40;90.30;;;;;;4130169;28;20994;-81
2021/07/19 11:01:35;;;;;;;15.73;4.80;;;21.50;89.80;;;;;;4130914;28;20470;-81
2021/07/19 11:03:42;;;;;;;6.93;4.07;;;21.70;89.00;;;;;;4134067;28;20470;-81
2021/07/19 11:05:53;;;;;;;5.20;4.23;;;21.80;89.00;;;;;;4135167;28;20557;-82
2021/07/19 11:07:59;;;;;;;7.07;3.90;;;21.80;89.40;;;;;;4132960;28;20574;-83
2021/07/19 11:10:15;;;;;;;5.73;4.20;;;22.00;89.70;;;;;;4131253;28;20553;-82
2021/07/19 11:12:18;;;;;;;6.07;4.30;;;21.90;88.20;;;;;;4130452;28;20501;-82
2021/07/19 11:14:24;;;;;;;4.30;3.90;;;21.80;88.80;;;;;;4132662;28;20524;-82
2021/07/19 11:16:39;;;;;;;5.90;4.17;;;21.60;88.50;;;;;;4132463;28;20476;-81
2021/07/19 11:18:54;;;;;;;6.63;4.00;;;21.40;89.40;;;;;;4133911;28;20471;-82
2021/07/19 11:21:00;;;;;;;5.33;4.57;;;21.20;90.00;;;;;;4134491;28;20474;-82
2021/07/19 11:23:03;;;;;;;5.67;3.60;;;21.00;91.60;;;;;;4131175;28;20511;-82
2021/07/19 11:25:26;;;;;;;8.90;5.50;;;21.00;91.30;;;;;;4131729;28;20501;-83
2021/07/19 11:27:32;;;;;;;5.90;4.03;;;20.90;92.30;;;;;;4132166;28;20477;-82
2021/07/19 11:29:37;;;;;;;5.40;4.10;;;21.00;92.20;;;;;;4131541;28;20477;-82
2021/07/19 11:31:40;;;;;;;9.63;5.67;;;21.00;92.80;;;;;;4134767;28;20448;-84
2021/07/19 11:33:50;;;;;;;6.60;4.50;;;21.00;92.40;;;;;;4134302;28;20459;-82
2021/07/19 11:35:53;;;;;;;8.23;4.80;;;20.70;93.60;;;;;;4132326;28;20462;-82
2021/07/19 11:38:14;;;;;;;4.67;4.27;;;20.50;93.90;;;;;;4133135;28;21012;-82
2021/07/19 11:40:29;;;;;;;4.63;4.07;;;20.40;94.80;;;;;;4132379;28;20962;-82
2021/07/19 11:42:34;;;;;;;7.93;5.00;;;20.60;94.40;;;;;;4133931;28;20505;-83
2021/07/19 11:44:39;;;;;;;9.17;4.20;;;20.80;94.30;;;;;;4131438;28;20459;-82
2021/07/19 11:46:45;;;;;;;5.80;4.40;;;21.00;93.30;;;;;;4132721;28;20499;-82
2021/07/19 11:48:57;;;;;;;7.20;4.60;;;21.10;93.60;;;;;;4131676;28;20506;-82
2021/07/19 11:51:01;;;;;;;4.47;3.80;;;21.20;93.00;;;;;;4132536;28;20499;-82
2021/07/19 11:53:04;;;;;;;7.53;4.50;;;21.20;93.10;;;;;;4131527;28;20482;-82
2021/07/19 11:55:13;;;;;;;5.20;3.93;;;21.30;93.10;;;;;;4130672;28;20466;-83
2021/07/19 11:57:15;;;;;;;5.23;4.07;;;21.40;91.40;;;;;;4132986;28;20463;-82
2021/07/19 11:59:20;;;;;;;7.00;4.77;;;21.10;92.00;;;;;;4131945;28;20467;-83
2021/07/19 12:01:31;;;;;;;6.83;5.20;;;21.00;94.00;;;;;;4132358;28;20471;-83
2021/07/19 12:03:34;;;;;;;5.40;4.27;;;21.30;91.60;;;;;;4130628;28;20494;-83
2021/07/19 12:05:40;;;;;;;6.03;4.10;;;21.40;92.10;;;;;;4130576;28;20554;-83
2021/07/19 12:07:43;;;;;;;7.63;4.70;;;21.70;91.90;;;;;;4130780;28;20499;-82
2021/07/19 12:09:57;;;;;;;4.83;4.00;;;22.00;90.10;;;;;;4132874;28;20570;-83
2021/07/19 12:12:02;;;;;;;8.20;4.60;;;22.10;89.00;;;;;;4135971;28;20490;-82
2021/07/19 12:14:08;;;;;;;5.73;4.10;;;22.20;88.80;;;;;;4137654;28;20486;-83
2021/07/19 12:16:14;;;;;;;6.50;4.00;;;22.30;88.70;;;;;;4135157;28;20474;-82
2021/07/19 12:18:27;;;;;;;9.20;4.00;;;22.40;88.70;;;;;;4136906;28;21090;-83
2021/07/19 12:20:30;;;;;;;5.57;4.30;;;22.60;88.60;;;;;;4137627;28;20471;-82
2021/07/19 12:22:37;;;;;;;7.53;4.37;;;22.70;87.90;;;;;;4137224;28;20593;-82
2021/07/19 12:24:40;;;;;;;6.70;4.40;;;22.50;88.20;;;;;;4136578;28;20568;-82
2021/07/19 12:26:45;;;;;;;5.23;4.30;;;22.50;87.90;;;;;;4136684;28;20467;-82
2021/07/19 12:28:57;;;;;;;5.50;4.50;;;22.20;89.00;;;;;;4137432;28;20478;-82
2021/07/19 12:31:15;;;;;;;7.93;5.50;;;22.20;89.70;;;;;;4138094;28;20469;-82
2021/07/19 12:33:23;;;;;;;7.63;5.53;;;22.20;89.70;;;;;;4138312;28;20554;-82
2021/07/19 12:35:29;;;;;;;9.20;4.77;;;22.10;89.30;;;;;;4131569;28;22551;-83
2021/07/19 12:37:32;;;;;;;10.87;5.13;;;22.00;89.90;;;;;;4137726;28;20473;-84
2021/07/19 12:39:41;;;;;;;6.53;4.20;;;21.70;90.20;;;;;;4131821;28;20470;-84
2021/07/19 12:41:48;;;;;;;7.60;4.43;;;21.30;90.80;;;;;;4134503;28;20478;-83
2021/07/19 12:43:54;;;;;;;7.43;4.80;;;21.10;91.60;;;;;;4132098;28;20871;-83
2021/07/19 12:45:59;;;;;;;6.80;4.77;;;21.00;92.70;;;;;;4136073;28;20469;-83
2021/07/19 12:48:04;;;;;;;7.60;4.90;;;21.10;92.90;;;;;;4136777;28;20487;-83
2021/07/19 12:50:09;;;;;;;5.30;4.20;;;21.10;92.80;;;;;;4137262;28;20473;-83
2021/07/19 12:52:16;;;;;;;6.67;4.43;;;21.10;93.40;;;;;;4130862;28;20510;-84
2021/07/19 12:54:41;;;;;;;7.13;4.67;;;21.20;92.70;;;;;;4133289;28;20958;-83
2021/07/19 12:56:50;;;;;;;4.57;3.97;;;21.20;92.00;;;;;;4136203;28;20459;-83
2021/07/19 12:58:57;;;;;;;8.00;4.67;;;21.10;92.20;;;;;;4132310;28;20470;-83
2021/07/19 13:01:12;;;;;;;7.83;4.33;;;20.90;92.70;;;;;;4133993;28;20475;-83
2021/07/19 13:03:15;;;;;;;5.03;4.30;;;20.90;92.40;;;;;;4133082;28;21005;-83
2021/07/19 13:05:19;;;;;;;7.80;4.07;;;20.90;92.90;;;;;;4134596;28;20833;-83
2021/07/19 13:07:29;;;;;;;6.50;4.70;;;21.10;92.70;;;;;;4133782;28;20481;-83
2021/07/19 13:09:33;;;;;;;7.77;4.37;;;21.30;93.20;;;;;;4135803;28;20510;-83
2021/07/19 13:11:40;;;;;;;6.47;4.10;;;21.50;91.60;;;;;;4134046;28;20474;-83
2021/07/19 13:13:43;;;;;;;6.17;4.00;;;21.50;89.90;;;;;;4131871;28;20625;-83
2021/07/19 13:15:46;;;;;;;6.20;4.87;;;21.40;91.40;;;;;;4133941;28;20485;-83
2021/07/19 13:18:00;;;;;;;5.27;4.07;;;21.50;91.80;;;;;;4135641;28;20523;-83
2021/07/19 13:20:06;;;;;;;6.23;4.27;;;21.60;91.50;;;;;;4133635;28;20990;-83
2021/07/19 13:22:11;;;;;;;7.23;5.00;;;21.50;91.70;;;;;;4132961;28;21088;-83
2021/07/19 13:24:15;;;;;;;4.90;4.20;;;21.60;91.90;;;;;;4133516;28;20463;-83
2021/07/19 13:26:18;;;;;;;8.30;4.30;;;21.60;92.30;;;;;;4131621;28;20468;-83
2021/07/19 13:28:23;;;;;;;5.90;4.87;;;21.60;92.00;;;;;;4135780;28;20518;-82
2021/07/19 13:30:31;;;;;;;5.80;4.37;;;21.50;90.10;;;;;;4135633;28;21048;-82
2021/07/19 13:32:34;;;;;;;6.23;4.20;;;21.50;90.00;;;;;;4133887;28;20491;-83
2021/07/19 13:34:37;;;;;;;4.97;4.40;;;21.50;89.60;;;;;;4134375;28;20943;-83
2021/07/19 13:36:45;;;;;;;7.13;4.30;;;21.50;89.40;;;;;;4136373;28;20494;-83
2021/07/19 13:38:52;;;;;;;8.03;6.90;;;21.50;89.50;;;;;;4133846;28;20470;-83
2021/07/19 13:40:55;;;;;;;12.90;6.93;;;21.70;88.20;;;;;;4139720;28;20462;-83
2021/07/19 13:54:48;;;;;;;3.90;3.30;;;21.50;88.00;;;;;;4124678;28;20618;-83
2021/07/19 13:57:24;;;;;;;4.77;3.50;;;21.30;88.90;;;;;;4063079;29;20454;-83
2021/07/19 13:59:34;;;;;;;6.30;3.37;;;21.30;90.40;;;;;;4079654;29;20473;-83
2021/07/19 14:01:40;;;;;;;7.23;4.73;;;21.30;90.00;;;;;;4080886;29;20525;-83
2021/07/19 14:06:48;;;;;;;4.77;4.00;;;21.30;88.70;;;;;;4077525;29;20557;-82
2021/07/19 14:08:58;;;;;;;4.83;3.50;;;21.30;88.80;;;;;;4074997;29;20482;-83
2021/07/19 14:11:02;;;;;;;3.90;3.27;;;21.40;88.00;;;;;;4080300;29;20474;-83
2021/07/19 14:13:05;;;;;;;4.37;3.60;;;21.50;87.10;;;;;;4081310;29;20939;-83
2021/07/19 14:15:10;;;;;;;4.07;3.30;;;21.40;87.80;;;;;;4081973;29;20490;-83
2021/07/19 14:17:13;;;;;;;4.30;3.40;;;21.30;88.00;;;;;;4082386;29;20557;-84
2021/07/19 14:19:18;;;;;;;5.30;3.60;;;21.40;89.20;;;;;;4080972;29;20491;-84
2021/07/19 14:21:21;;;;;;;7.87;3.70;;;21.50;88.80;;;;;;4080083;29;20565;-84
2021/07/19 14:23:24;;;;;;;4.50;3.43;;;21.40;88.70;;;;;;4081856;29;20490;-83
2021/07/19 14:25:28;;;;;;;5.93;3.83;;;21.50;89.10;;;;;;4079470;29;21518;-84
2021/07/19 14:27:34;;;;;;;7.13;3.70;;;21.50;89.20;;;;;;4083333;29;20470;-83
2021/07/19 14:29:40;;;;;;;4.80;3.90;;;21.50;88.90;;;;;;4120793;28;20570;-84
2021/07/19 14:31:44;;;;;;;5.40;3.50;;;21.60;89.20;;;;;;4125972;28;20471;-84
2021/07/19 14:33:47;;;;;;;9.50;5.03;;;21.60;88.10;;;;;;4128725;28;20945;-83
2021/07/19 14:35:53;;;;;;;10.33;5.23;;;21.70;88.30;;;;;;4125033;28;21030;-84
2021/07/19 14:37:56;;;;;;;6.17;4.17;;;21.70;88.30;;;;;;4124872;28;20554;-84
2021/07/19 14:39:59;;;;;;;8.20;5.03;;;21.80;88.90;;;;;;4124404;28;20468;-83
2021/07/19 14:42:02;;;;;;;4.23;3.43;;;21.90;89.50;;;;;;4128740;28;21065;-84
2021/07/19 14:44:06;;;;;;;5.07;4.00;;;22.10;88.40;;;;;;4127613;28;20554;-83
2021/07/19 14:46:10;;;;;;;12.17;4.30;;;22.10;86.60;;;;;;4120116;28;20887;-83
2021/07/19 14:48:13;;;;;;;5.50;4.50;;;21.90;87.50;;;;;;4124439;28;20571;-84
2021/07/19 14:50:17;;;;;;;5.20;3.63;;;21.70;87.60;;;;;;4123850;28;20982;-85
2021/07/19 14:52:22;;;;;;;6.00;4.70;;;21.60;88.10;;;;;;4124630;28;20468;-83
2021/07/19 14:54:25;;;;;;;5.30;3.70;;;21.50;89.10;;;;;;4119236;28;20582;-83
2021/07/19 14:56:29;;;;;;;7.07;4.40;;;21.40;89.40;;;;;;4124475;28;20471;-84
2021/07/19 14:58:32;;;;;;;5.27;4.20;;;21.30;89.80;;;;;;4123762;28;20899;-84
2021/07/19 15:00:35;;;;;;;5.10;3.87;;;21.10;90.70;;;;;;4123252;28;20519;-83
2021/07/19 15:02:38;;;;;;;6.27;4.20;;;21.00;91.40;;;;;;4124299;28;20478;-83
2021/07/19 15:04:42;;;;;;;4.33;3.57;;;21.10;91.70;;;;;;4125982;28;20527;-84
2021/07/19 15:06:45;;;;;;;6.70;3.57;;;21.10;92.00;;;;;;4123044;28;20623;-83
2021/07/19 15:08:49;;;;;;;5.20;3.70;;;20.90;91.80;;;;;;4123141;28;20867;-84
2021/07/19 15:10:52;;;;;;;5.23;3.53;;;20.80;92.10;;;;;;4123078;28;20574;-83
2021/07/19 15:12:55;;;;;;;4.13;3.63;;;20.90;92.70;;;;;;4124951;28;20476;-83
2021/07/19 15:14:58;;;;;;;6.63;4.00;;;21.00;93.20;;;;;;4127712;28;20483;-83
2021/07/19 15:17:01;;;;;;;4.57;3.73;;;21.30;92.90;;;;;;4128071;28;20981;-83
2021/07/19 15:19:05;;;;;;;4.83;4.10;;;21.50;92.30;;;;;;4122651;28;20571;-83
2021/07/19 15:21:08;;;;;;;4.10;3.70;;;21.70;92.40;;;;;;4122859;28;20513;-83
2021/07/19 15:23:11;;;;;;;6.40;3.90;;;21.80;90.40;;;;;;4123599;28;20548;-83
2021/07/19 15:25:15;;;;;;;3.77;3.43;;;21.80;89.60;;;;;;4123959;28;20491;-83
2021/07/19 15:27:18;;;;;;;5.63;3.77;;;21.80;90.00;;;;;;4123497;28;20562;-83
2021/07/19 15:29:21;;;;;;;4.50;4.10;;;21.90;89.70;;;;;;4123424;28;20478;-83
2021/07/19 15:31:25;;;;;;;4.50;3.37;;;22.00;89.90;;;;;;4122575;28;20468;-83
2021/07/19 15:33:28;;;;;;;4.13;3.07;;;22.00;89.60;;;;;;4123419;28;20856;-83
2021/07/19 15:35:31;;;;;;;5.87;3.40;;;22.10;89.40;;;;;;4123531;28;21003;-83
2021/07/19 15:37:34;;;;;;;6.03;3.53;;;22.10;89.80;;;;;;4124016;28;20471;-84
2021/07/19 15:39:38;;;;;;;6.17;3.50;;;22.00;90.00;;;;;;4124889;28;20986;-84
2021/07/19 15:41:42;;;;;;;6.13;3.33;;;22.00;89.80;;;;;;4123887;28;20886;-83
2021/07/19 15:43:50;;;;;;;7.40;3.50;;;21.90;90.80;;;;;;4124530;28;20578;-84
2021/07/19 15:45:53;;;;;;;7.03;4.30;;;21.90;91.30;;;;;;4126750;28;20621;-83
2021/07/19 15:47:56;;;;;;;5.40;3.50;;;22.00;90.30;;;;;;4122229;28;20896;-83
2021/07/19 15:49:59;;;;;;;5.63;3.80;;;21.80;90.70;;;;;;4123208;28;20565;-84
2021/07/19 15:52:02;;;;;;;8.03;3.70;;;21.70;90.80;;;;;;4123734;28;20971;-85
2021/07/19 15:54:06;;;;;;;5.33;3.60;;;21.70;91.00;;;;;;4122387;28;20494;-82
2021/07/19 15:56:10;;;;;;;7.67;4.17;;;21.60;90.90;;;;;;4124004;28;20574;-83
2021/07/19 15:58:14;;;;;;;5.10;3.70;;;21.40;90.80;;;;;;4122800;28;20480;-83
2021/07/19 16:00:18;;;;;;;3.90;3.50;;;21.10;90.40;;;;;;4124026;28;20471;-83
2021/07/19 16:02:21;;;;;;;4.77;3.77;;;20.90;91.00;;;;;;4124633;28;20459;-83
2021/07/19 16:04:24;;;;;;;7.20;4.33;;;20.80;91.50;;;;;;4125102;28;20499;-83
2021/07/19 16:06:27;;;;;;;6.20;4.20;;;20.70;91.60;;;;;;4123154;28;20498;-83
2021/07/19 16:08:30;;;;;;;5.43;3.97;;;20.70;91.90;;;;;;4123814;28;20495;-83
2021/07/19 16:10:33;;;;;;;4.60;3.80;;;20.80;91.50;;;;;;4122931;28;21046;-83
2021/07/19 16:12:36;;;;;;;6.80;4.83;;;20.80;91.70;;;;;;4122675;28;20476;-83
2021/07/19 16:14:41;;;;;;;6.40;4.20;;;20.80;92.10;;;;;;4124648;28;20486;-84
2021/07/19 16:17:01;;;;;;;6.77;3.87;;;20.80;91.70;;;;;;4122987;28;20475;-83
2021/07/19 16:19:04;;;;;;;7.83;3.50;;;20.90;92.10;;;;;;4124012;28;20901;-83
2021/07/19 16:21:07;;;;;;;8.10;4.10;;;20.90;92.30;;;;;;4123051;28;20468;-83
2021/07/19 16:23:10;;;;;;;6.47;3.70;;;21.10;91.50;;;;;;4122876;28;20502;-83
2021/07/19 16:25:13;;;;;;;4.73;4.10;;;21.20;91.20;;;;;;4123562;28;20489;-83
2021/07/19 16:27:16;;;;;;;4.77;4.27;;;21.20;91.70;;;;;;4123458;28;20498;-84
2021/07/19 16:29:20;;;;;;;4.70;3.37;;;21.10;91.60;;;;;;4122555;28;20830;-82
2021/07/19 16:31:25;;;;;;;8.10;4.17;;;21.10;92.00;;;;;;4125565;28;20478;-83
2021/07/19 16:33:28;;;;;;;6.67;3.33;;;21.00;93.50;;;;;;4123002;28;20489;-83
2021/07/19 16:35:31;;;;;;;5.13;4.33;;;21.10;93.60;;;;;;4121443;28;20498;-84
2021/07/19 16:37:34;;;;;;;3.83;3.47;;;21.10;93.50;;;;;;4121202;28;20897;-84
2021/07/19 16:39:37;;;;;;;5.93;3.70;;;21.10;93.20;;;;;;4124890;28;20487;-83
2021/07/19 16:41:40;;;;;;;6.37;3.53;;;21.10;93.60;;;;;;4120459;28;20565;-83
2021/07/19 16:43:43;;;;;;;4.23;3.70;;;21.10;93.20;;;;;;4116453;28;20491;-83
2021/07/19 16:47:51;;;;;;;6.97;3.90;;;21.00;93.10;;;;;;4124422;28;21225;-83
2021/07/19 16:50:11;;;;;;;9.27;4.40;;;21.00;92.80;;;;;;4127933;28;20524;-83
2021/07/19 16:52:14;;;;;;;9.07;4.07;;;20.90;91.50;;;;;;4122182;28;20467;-83
2021/07/19 16:54:17;;;;;;;7.20;3.47;;;20.80;91.70;;;;;;4130953;28;20555;-83
2021/07/19 16:56:20;;;;;;;4.50;3.60;;;20.80;91.20;;;;;;4125993;28;21077;-83
2021/07/19 16:58:28;;;;;;;5.53;3.63;;;20.90;91.00;;;;;;4128650;28;20964;-83
2021/07/19 17:00:31;;;;;;;5.27;3.50;;;20.90;91.70;;;;;;4129592;28;21039;-83
2021/07/19 17:02:36;;;;;;;5.13;3.30;;;20.90;91.50;;;;;;4122158;28;20868;-83
2021/07/19 17:04:41;;;;;;;4.40;3.63;;;20.80;92.10;;;;;;4126037;28;20863;-82
2021/07/19 17:06:44;;;;;;;5.80;3.77;;;20.80;91.80;;;;;;4123187;28;20950;-83
2021/07/19 17:08:47;;;;;;;5.93;3.27;;;20.70;90.60;;;;;;4123725;28;20567;-83
2021/07/19 17:10:50;;;;;;;5.07;3.30;;;20.60;91.70;;;;;;4122843;28;20547;-83
2021/07/19 17:12:54;;;;;;;6.00;3.30;;;20.60;91.40;;;;;;4126125;28;20557;-83
2021/07/19 17:14:57;;;;;;;6.70;3.90;;;20.60;92.30;;;;;;4126173;28;20471;-83
2021/07/19 17:17:00;;;;;;;6.23;3.40;;;20.60;92.20;;;;;;4131031;28;20579;-83
2021/07/19 17:19:03;;;;;;;6.03;3.57;;;20.70;91.40;;;;;;4124917;28;20579;-83
2021/07/19 17:21:08;;;;;;;4.87;4.07;;;20.60;91.80;;;;;;4122936;28;20830;-82
2021/07/19 17:23:11;;;;;;;6.10;3.00;;;20.60;91.30;;;;;;4124538;28;20491;-83
2021/07/19 17:25:15;;;;;;;6.50;4.60;;;20.50;91.60;;;;;;4124460;28;20495;-83
2021/07/19 17:27:18;;;;;;;19.20;9.90;;;20.50;91.80;;;;;;4124437;28;20466;-83
2021/07/19 17:29:21;;;;;;;8.23;4.90;;;20.50;92.10;;;;;;4124883;28;20583;-83
2021/07/19 17:31:24;;;;;;;7.47;5.00;;;20.50;92.50;;;;;;4123997;28;20462;-84
2021/07/19 17:33:27;;;;;;;3.67;3.37;;;20.50;92.30;;;;;;4125759;28;20518;-83
2021/07/19 17:35:32;;;;;;;6.13;3.40;;;20.40;92.40;;;;;;4124407;28;20485;-84
2021/07/19 17:37:38;;;;;;;7.30;3.40;;;20.30;93.00;;;;;;4124616;28;20584;-83
2021/07/19 17:39:41;;;;;;;7.17;4.00;;;20.40;93.30;;;;;;4124856;28;20554;-83
2021/07/19 17:41:45;;;;;;;6.17;4.00;;;20.30;93.50;;;;;;4125444;28;20474;-83
2021/07/19 17:43:48;;;;;;;5.10;3.87;;;20.40;93.80;;;;;;4123948;28;20514;-84
2021/07/19 17:45:51;;;;;;;8.63;3.50;;;20.40;93.20;;;;;;4123682;28;20476;-83
2021/07/19 17:47:56;;;;;;;4.20;3.37;;;20.40;93.50;;;;;;4124311;28;20555;-83
2021/07/19 17:49:59;;;;;;;6.20;3.80;;;20.30;93.40;;;;;;4124175;28;20459;-83
2021/07/19 17:52:06;;;;;;;5.87;3.53;;;20.20;93.60;;;;;;4125698;28;20559;-83
2021/07/19 17:54:11;;;;;;;6.13;3.87;;;20.30;93.90;;;;;;4128632;28;20483;-83
2021/07/19 17:56:14;;;;;;;6.80;3.33;;;20.30;94.30;;;;;;4127576;28;20891;-83
2021/07/19 17:58:17;;;;;;;4.83;3.53;;;20.30;94.60;;;;;;4125197;28;20523;-83
2021/07/19 18:00:21;;;;;;;6.60;4.10;;;20.20;94.70;;;;;;4124725;28;20544;-84
2021/07/19 18:02:24;;;;;;;5.20;3.47;;;20.20;94.80;;;;;;4125375;28;20921;-83
2021/07/19 18:04:27;;;;;;;5.10;3.70;;;20.30;95.20;;;;;;4124937;28;20618;-84
2021/07/19 18:06:31;;;;;;;6.70;3.50;;;20.20;95.20;;;;;;4127695;28;21034;-83
2021/07/19 18:08:35;;;;;;;5.03;3.80;;;20.10;95.90;;;;;;4125526;28;20511;-84
2021/07/19 18:10:40;;;;;;;6.70;3.50;;;20.20;96.10;;;;;;4124970;28;20901;-85
2021/07/19 18:12:43;;;;;;;5.33;3.63;;;20.20;95.70;;;;;;4126548;28;20975;-83
2021/07/19 18:14:46;;;;;;;6.70;3.50;;;20.20;95.90;;;;;;4124722;28;20510;-83
2021/07/19 18:16:49;;;;;;;5.80;3.53;;;20.20;96.20;;;;;;4128849;28;20526;-83
2021/07/19 18:18:55;;;;;;;7.50;3.63;;;20.20;96.00;;;;;;4126231;28;20516;-84
2021/07/19 18:20:59;;;;;;;6.57;4.13;;;20.10;96.40;;;;;;4124866;28;20554;-85
2021/07/19 18:23:08;;;;;;;5.30;3.43;;;20.10;96.60;;;;;;4125771;28;20475;-81
2021/07/19 18:25:23;;;;;;;7.13;3.60;;;20.10;96.70;;;;;;4125372;28;20511;-83
2021/07/19 18:32:36;;;;;;;8.17;4.30;;;20.00;97.90;;;;;;4126569;28;20835;-86
2021/07/19 18:34:39;;;;;;;9.47;6.50;;;19.80;97.80;;;;;;4123428;28;20484;-78
2021/07/19 18:36:43;;;;;;;12.20;7.70;;;19.80;98.30;;;;;;4121869;28;20502;-78
2021/07/19 18:38:49;;;;;;;17.60;10.73;;;19.80;98.30;;;;;;4123006;28;20471;-78
2021/07/19 18:40:53;;;;;;;11.90;4.77;;;19.80;98.30;;;;;;4123741;28;20563;-78
2021/07/19 18:42:57;;;;;;;8.53;6.23;;;19.70;98.30;;;;;;4123615;28;20471;-78
2021/07/19 18:45:01;;;;;;;10.77;4.50;;;19.60;98.30;;;;;;4125081;28;20866;-78
2021/07/19 18:47:05;;;;;;;9.60;3.93;;;19.60;98.30;;;;;;4122771;28;20483;-78
2021/07/19 18:49:07;;;;;;;8.07;4.70;;;19.50;98.30;;;;;;4124146;28;20896;-78
2021/07/19 18:51:11;;;;;;;6.23;4.47;;;19.40;98.30;;;;;;4123902;28;20471;-78
2021/07/19 18:53:14;;;;;;;6.43;4.40;;;19.30;98.30;;;;;;4124238;28;20533;-78
2021/07/19 18:55:18;;;;;;;11.87;4.80;;;19.30;98.30;;;;;;4124473;28;20478;-78
2021/07/19 18:57:21;;;;;;;7.57;4.43;;;19.20;98.30;;;;;;4124890;28;20468;-78
2021/07/19 18:59:26;;;;;;;5.67;4.27;;;19.20;98.30;;;;;;4121494;28;21010;-78
2021/07/19 19:01:36;;;;;;;13.23;4.60;;;19.10;98.30;;;;;;4123137;28;20468;-78
2021/07/19 19:03:40;;;;;;;8.00;4.27;;;19.20;98.30;;;;;;4123870;28;20492;-78